Time;durP1;ratioP1;P1;durP2;ratioP2;P2;SDS_P1;SDS_P2;PMS_P1;PMS_P2;Temp;Humidity;BMP_temperature;BMP_pressure;BME280_temperature;BME280_humidity;BME280_pressure;Samples;Min_cycle;Max_cycle;Signal;HPM_P1;HPM_P2
2023/04/13 00:00:45;;;;;;;3.28;0.93;;;;;;;18.78;51.78;99241.38;4976278;28;20501;-72
2023/04/13 00:03:11;;;;;;;2.70;0.95;;;;;;;18.79;51.58;99242.22;4976204;28;20042;-73
2023/04/13 00:05:38;;;;;;;2.17;1.00;;;;;;;18.77;51.78;99236.19;4994863;28;20077;-72
2023/04/13 00:08:04;;;;;;;2.80;1.05;;;;;;;18.75;51.65;99238.91;4995344;28;20034;-72
2023/04/13 00:10:35;;;;;;;2.60;0.80;;;;;;;18.76;51.65;99232.69;4995270;28;20026;-73
2023/04/13 00:13:03;;;;;;;1.98;0.80;;;;;;;18.74;51.59;99233.72;4995128;28;20488;-72
2023/04/13 00:15:29;;;;;;;2.63;0.80;;;;;;;18.72;51.80;99228.50;4977420;28;20129;-72
2023/04/13 00:17:55;;;;;;;2.42;0.80;;;;;;;18.72;51.74;99225.88;4975893;28;20504;-72
2023/04/13 00:20:20;;;;;;;2.33;0.95;;;;;;;18.72;51.64;99225.88;4958464;28;20105;-72
2023/04/13 00:22:47;;;;;;;2.50;0.85;;;;;;;18.71;51.97;99223.31;4975686;28;20393;-74
2023/04/13 00:25:14;;;;;;;2.63;0.90;;;;;;;18.72;51.79;99215.31;4991010;28;20101;-73
2023/04/13 00:27:41;;;;;;;1.95;0.70;;;;;;;18.72;51.64;99215.31;4994747;28;20065;-72
2023/04/13 00:30:18;;;;;;;1.55;0.70;;;;;;;18.70;51.59;99211.03;4995054;28;20027;-72
2023/04/13 00:32:44;;;;;;;2.63;0.90;;;;;;;18.68;51.86;99219.03;4994756;28;20037;-73
2023/04/13 00:35:14;;;;;;;2.05;0.88;;;;;;;18.70;51.88;99208.41;4979947;28;20086;-73
2023/04/13 00:37:41;;;;;;;2.42;0.70;;;;;;;18.67;51.51;99206.78;4975465;28;20034;-73
2023/04/13 00:40:08;;;;;;;2.05;0.90;;;;;;;18.68;51.79;99212.91;4974926;28;20149;-72
2023/04/13 00:42:34;;;;;;;1.58;0.90;;;;;;;18.68;51.69;99207.63;4975344;28;20081;-71
2023/04/13 00:44:59;;;;;;;2.83;0.93;;;;;;;18.68;51.76;99208.47;4975134;28;20038;-72
2023/04/13 00:47:27;;;;;;;2.00;0.88;;;;;;;18.67;51.78;99213.84;4975363;28;20034;-73
2023/04/13 00:49:59;;;;;;;2.72;0.90;;;;;;;18.65;51.83;99203.38;4973941;28;20089;-73
2023/04/13 00:52:24;;;;;;;2.80;0.73;;;;;;;18.63;51.49;99206.09;4974955;28;20556;-73
2023/04/13 00:54:50;;;;;;;2.95;0.90;;;;;;;18.60;51.92;99192.19;4965094;28;20026;-72
2023/04/13 00:57:18;;;;;;;1.83;0.60;;;;;;;18.62;51.53;99198.25;4975242;28;20110;-73
2023/04/13 00:59:44;;;;;;;1.42;0.70;;;;;;;18.63;51.86;99189.38;4974996;28;20031;-73
2023/04/13 01:02:09;;;;;;;2.10;0.75;;;;;;;18.59;51.81;99182.56;4973871;28;20031;-73
2023/04/13 01:04:36;;;;;;;1.45;0.60;;;;;;;18.58;51.76;99178.19;4974718;28;20022;-72
2023/04/13 01:07:15;;;;;;;1.67;0.70;;;;;;;18.58;51.87;99176.41;4974854;28;20035;-73
2023/04/13 01:09:48;;;;;;;2.55;0.70;;;;;;;18.60;51.62;99168.41;4974549;28;20752;-73
2023/04/13 01:12:49;;;;;;;1.80;0.80;;;;;;;18.57;51.70;99169.44;4974904;28;20038;-73
2023/04/13 01:15:16;;;;;;;3.75;0.98;;;;;;;18.57;51.92;99163.28;4974475;28;20035;-73
2023/04/13 01:17:53;;;;;;;1.20;0.50;;;;;;;18.55;51.63;99154.59;4974691;28;20404;-73
2023/04/13 01:20:19;;;;;;;2.38;0.73;;;;;;;18.54;51.52;99152.91;4974115;28;20033;-73
2023/04/13 01:22:56;;;;;;;1.77;0.60;;;;;;;18.54;51.74;99150.25;4974468;28;20066;-73
2023/04/13 01:25:34;;;;;;;1.48;0.57;;;;;;;18.56;51.77;99161.59;4974076;28;20550;-72
2023/04/13 01:28:10;;;;;;;2.53;0.60;;;;;;;18.56;51.58;99157.16;4974387;28;20030;-73
2023/04/13 01:30:37;;;;;;;1.38;0.70;;;;;;;18.54;51.54;99152.91;4974497;28;20070;-73
2023/04/13 01:33:03;;;;;;;2.83;0.70;;;;;;;18.52;51.88;99151.22;4974353;28;20035;-72
2023/04/13 01:35:29;;;;;;;1.95;0.68;;;;;;;18.54;51.68;99152.91;4974030;28;20547;-72
2023/04/13 01:37:56;;;;;;;2.35;0.95;;;;;;;18.51;51.66;99152.13;4974355;28;20070;-72
2023/04/13 01:40:22;;;;;;;1.80;0.60;;;;;;;18.48;51.53;99144.38;4988622;28;20435;-73
2023/04/13 01:42:48;;;;;;;1.33;0.50;;;;;;;18.49;51.56;99151.34;4989824;28;20034;-73
2023/04/13 01:45:59;;;;;;;2.72;0.80;;;;;;;18.51;51.59;99153.91;4988362;28;20022;-72
2023/04/13 01:48:47;;;;;;;1.60;0.63;;;;;;;18.49;51.48;99143.44;4895326;29;20542;-73
2023/04/13 01:51:17;;;;;;;2.50;0.93;;;;;;;18.48;51.63;99143.50;4895478;29;20044;-72
2023/04/13 01:53:49;;;;;;;2.03;0.70;;;;;;;18.46;51.48;99138.31;4893347;29;20135;-73
2023/04/13 01:56:18;;;;;;;2.20;0.80;;;;;;;18.45;51.62;99133.97;4876877;29;20495;-73
2023/04/13 01:58:48;;;;;;;2.20;0.70;;;;;;;18.46;51.52;99134.81;4861255;29;20611;-72
2023/04/13 02:01:14;;;;;;;2.03;0.70;;;;;;;18.44;51.47;99132.25;4876831;29;20407;-73
2023/04/13 02:03:41;;;;;;;2.35;0.80;;;;;;;18.46;51.45;99127.75;4877986;29;20048;-73
2023/04/13 02:06:08;;;;;;;1.50;0.65;;;;;;;18.45;51.62;99123.41;4895695;29;20052;-73
2023/04/13 02:08:35;;;;;;;1.50;0.63;;;;;;;18.45;51.51;99120.75;4894966;29;20058;-73
2023/04/13 02:11:02;;;;;;;0.98;0.55;;;;;;;18.45;51.62;99114.63;4895403;29;20427;-72
2023/04/13 02:13:28;;;;;;;1.88;0.93;;;;;;;18.43;51.65;99112.06;4895153;29;20430;-72
2023/04/13 02:15:53;;;;;;;1.63;0.60;;;;;;;18.43;51.54;99105.94;4876680;29;20775;-73
2023/04/13 02:18:19;;;;;;;1.67;0.70;;;;;;;18.43;51.55;99104.16;4876601;29;20025;-71
2023/04/13 02:20:44;;;;;;;2.83;0.75;;;;;;;18.41;51.63;99108.69;4882822;29;20109;-72
2023/04/13 02:23:13;;;;;;;2.40;0.80;;;;;;;18.38;51.47;99107.06;4982574;28;20073;-72
2023/04/13 02:25:42;;;;;;;1.65;0.57;;;;;;;18.39;51.47;99110.53;4975980;28;20031;-72
2023/04/13 02:28:08;;;;;;;1.83;0.77;;;;;;;18.37;51.42;99105.31;4973610;28;20038;-72
2023/04/13 02:30:33;;;;;;;1.77;0.50;;;;;;;18.38;51.51;99100.91;4973440;28;20038;-72
2023/04/13 02:32:59;;;;;;;1.52;0.60;;;;;;;18.34;51.66;99099.38;4973219;28;20519;-72
2023/04/13 02:35:24;;;;;;;1.98;0.70;;;;;;;18.36;51.51;99100.97;4987953;28;20030;-72
2023/04/13 02:37:50;;;;;;;1.83;0.65;;;;;;;18.35;51.45;99109.84;4992522;28;20022;-72
2023/04/13 02:40:15;;;;;;;2.95;0.90;;;;;;;18.33;51.67;99097.66;4992417;28;20042;-72
2023/04/13 02:42:41;;;;;;;1.52;0.63;;;;;;;18.32;51.47;99095.97;4989621;28;20121;-73
2023/04/13 02:45:16;;;;;;;3.00;1.00;;;;;;;18.32;51.41;99109.19;4985371;28;20033;-72
2023/04/13 02:47:43;;;;;;;2.00;0.70;;;;;;;18.32;51.44;99106.53;4975041;28;20026;-72
2023/04/13 02:50:10;;;;;;;1.98;0.80;;;;;;;18.30;51.52;99111.91;4992735;28;20436;-73
2023/04/13 02:52:36;;;;;;;1.27;0.70;;;;;;;18.28;51.44;99107.63;4979389;28;20027;-73
2023/04/13 02:55:01;;;;;;;3.40;0.75;;;;;;;18.31;51.56;99115.41;4984505;28;20073;-73
2023/04/13 02:57:27;;;;;;;2.22;0.52;;;;;;;18.28;51.43;99115.56;4992426;28;20023;-74
2023/04/13 02:59:52;;;;;;;1.75;0.68;;;;;;;18.28;51.54;99111.13;4989278;28;20480;-73
2023/04/13 03:02:18;;;;;;;2.35;0.75;;;;;;;18.27;51.44;99109.44;4992746;28;20030;-72
2023/04/13 03:04:44;;;;;;;2.67;0.70;;;;;;;18.25;51.64;99117.44;4983336;28;20393;-72
2023/04/13 03:07:10;;;;;;;1.70;0.60;;;;;;;18.26;51.70;99120.94;4972615;28;20451;-72
2023/04/13 03:09:36;;;;;;;1.80;0.50;;;;;;;18.25;51.31;99112.16;4973033;28;20035;-72
2023/04/13 03:12:02;;;;;;;1.70;0.50;;;;;;;18.24;51.22;99126.31;4972889;28;20027;-73
2023/04/13 03:14:28;;;;;;;1.33;0.60;;;;;;;18.23;51.24;99119.31;4979523;28;20018;-73
2023/04/13 03:16:57;;;;;;;2.00;0.68;;;;;;;18.23;51.37;99118.47;4982575;28;20026;-72
2023/04/13 03:19:22;;;;;;;1.38;0.50;;;;;;;18.22;51.60;99124.69;4972962;28;20113;-72
2023/04/13 03:21:49;;;;;;;2.40;0.70;;;;;;;18.20;51.27;99119.47;4972585;28;20556;-73
2023/04/13 03:24:14;;;;;;;1.13;0.30;;;;;;;18.23;51.57;99123.75;4979088;28;20030;-72
2023/04/13 03:26:40;;;;;;;1.00;0.38;;;;;;;18.22;51.46;99122.88;4996006;28;20022;-72
2023/04/13 03:29:05;;;;;;;2.00;0.50;;;;;;;18.20;51.40;99115.97;4996121;28;20023;-72
2023/04/13 03:31:31;;;;;;;1.80;0.65;;;;;;;18.18;51.50;99121.34;4996031;28;20022;-73
2023/04/13 03:33:57;;;;;;;2.08;0.63;;;;;;;18.20;51.21;99122.13;4993832;28;20022;-72
2023/04/13 03:36:23;;;;;;;1.85;0.47;;;;;;;18.20;51.18;99124.75;4976165;28;20023;-73
2023/04/13 03:38:48;;;;;;;1.33;0.52;;;;;;;18.18;51.26;99121.34;4976472;28;20031;-72
2023/04/13 03:41:14;;;;;;;1.40;0.40;;;;;;;18.17;51.50;99117.03;4976022;28;20038;-72
2023/04/13 03:43:40;;;;;;;2.28;0.65;;;;;;;18.15;51.18;99118.88;4976359;28;20026;-72
2023/04/13 03:46:06;;;;;;;1.90;0.68;;;;;;;18.17;51.28;99127.59;4976364;28;20555;-73
2023/04/13 03:48:32;;;;;;;1.60;0.70;;;;;;;18.15;51.21;99118.88;4976476;28;20038;-72
2023/04/13 03:50:58;;;;;;;1.23;0.50;;;;;;;18.12;51.38;99126.97;4976441;28;20322;-73
2023/04/13 03:53:24;;;;;;;1.17;0.50;;;;;;;18.13;51.30;99133.97;4976039;28;20023;-71
2023/04/13 03:55:50;;;;;;;1.75;0.50;;;;;;;18.11;51.17;99126.13;4976016;28;20097;-72
2023/04/13 03:58:16;;;;;;;1.08;0.50;;;;;;;18.11;51.29;99130.53;4976327;28;20109;-72
2023/04/13 04:00:41;;;;;;;1.00;0.40;;;;;;;18.11;51.19;99133.16;4976021;28;20408;-72
2023/04/13 04:03:06;;;;;;;2.17;0.80;;;;;;;18.09;51.44;99124.50;4975478;28;20031;-72
2023/04/13 04:05:32;;;;;;;1.02;0.40;;;;;;;18.08;51.51;99126.28;4976296;28;20382;-72
2023/04/13 04:07:57;;;;;;;0.85;0.40;;;;;;;18.11;51.41;99130.53;4975007;28;20118;-72
2023/04/13 04:10:22;;;;;;;1.17;0.50;;;;;;;18.11;51.38;99130.53;4976138;28;20075;-72
2023/04/13 04:12:48;;;;;;;1.13;0.50;;;;;;;18.08;51.30;99130.72;4975907;28;20038;-72
2023/04/13 04:15:13;;;;;;;2.58;0.70;;;;;;;18.08;51.12;99136.00;4975649;28;20038;-72
2023/04/13 04:17:39;;;;;;;2.00;0.98;;;;;;;18.05;51.07;99130.81;4975467;28;20569;-72
2023/04/13 04:20:05;;;;;;;1.73;0.52;;;;;;;18.07;51.37;99131.66;4975722;28;20041;-71
2023/04/13 04:22:33;;;;;;;1.80;0.80;;;;;;;18.05;51.41;99130.81;4975574;28;20054;-71
2023/04/13 04:24:59;;;;;;;3.20;0.50;;;;;;;18.02;51.16;99131.00;4975561;28;20030;-73
2023/04/13 04:27:27;;;;;;;1.20;0.40;;;;;;;18.07;51.17;99129.00;4975701;28;20022;-72
2023/04/13 04:29:57;;;;;;;1.40;0.30;;;;;;;18.05;51.41;99138.75;4975449;28;20027;-72
2023/04/13 04:32:24;;;;;;;0.88;0.40;;;;;;;18.04;51.32;99140.56;4975245;28;20031;-72
2023/04/13 04:34:52;;;;;;;1.42;0.50;;;;;;;18.04;51.42;99134.41;4974917;28;20063;-72
2023/04/13 04:37:22;;;;;;;1.88;0.50;;;;;;;18.02;51.04;99137.13;4974762;28;20533;-70
2023/04/13 04:39:47;;;;;;;1.17;0.40;;;;;;;18.01;51.22;99139.88;4975222;28;20135;-73
2023/04/13 04:42:13;;;;;;;0.93;0.30;;;;;;;18.00;51.28;99135.53;4975486;28;20166;-72
2023/04/13 04:44:39;;;;;;;1.25;0.45;;;;;;;17.99;51.36;99126.75;4975160;28;20129;-72
2023/04/13 04:47:05;;;;;;;2.28;0.63;;;;;;;17.98;51.34;99131.16;4974797;28;20069;-72
2023/04/13 04:49:30;;;;;;;1.88;0.70;;;;;;;17.97;51.13;99129.47;4975077;28;20109;-72
2023/04/13 04:51:57;;;;;;;1.77;0.60;;;;;;;17.98;51.05;99131.16;4974961;28;20038;-73
2023/04/13 04:54:22;;;;;;;1.10;0.60;;;;;;;17.97;51.05;99129.47;4975130;28;20065;-73
2023/04/13 04:56:49;;;;;;;2.28;0.73;;;;;;;17.96;51.25;99133.03;4974289;28;20468;-72
2023/04/13 04:59:14;;;;;;;1.38;0.47;;;;;;;17.98;51.26;99130.31;4974730;28;20023;-72
2023/04/13 05:01:41;;;;;;;0.82;0.47;;;;;;;17.96;51.28;99138.31;4974782;28;20444;-72
2023/04/13 05:04:07;;;;;;;1.38;0.47;;;;;;;17.95;51.21;99136.63;4974843;28;20035;-72
2023/04/13 05:06:33;;;;;;;1.25;0.50;;;;;;;17.98;51.28;99144.34;4975110;28;20081;-72
2023/04/13 05:09:00;;;;;;;2.33;0.50;;;;;;;17.96;51.20;99135.69;4974524;28;20058;-71
2023/04/13 05:11:29;;;;;;;1.58;0.60;;;;;;;17.96;51.06;99146.25;4974489;28;20485;-73
2023/04/13 05:13:55;;;;;;;0.90;0.40;;;;;;;17.93;51.17;99151.66;4974248;28;20026;-72
2023/04/13 05:16:22;;;;;;;2.05;0.52;;;;;;;17.96;51.03;99153.28;4958065;28;20081;-73
2023/04/13 05:18:47;;;;;;;1.70;0.63;;;;;;;17.94;51.05;99150.75;4974604;28;20109;-73
2023/04/13 05:21:14;;;;;;;2.33;0.80;;;;;;;17.93;50.82;99151.66;4974708;28;20110;-72
2023/04/13 05:23:40;;;;;;;2.17;0.68;;;;;;;17.92;51.13;99155.25;4974774;28;20118;-72
2023/04/13 05:26:08;;;;;;;1.38;0.50;;;;;;;17.93;51.11;99153.47;4974552;28;20031;-72
2023/04/13 05:28:34;;;;;;;1.63;0.40;;;;;;;17.91;50.99;99150.06;4974683;28;20033;-72
2023/04/13 05:31:04;;;;;;;1.65;0.50;;;;;;;17.91;50.80;99148.25;4974275;28;20034;-73
2023/04/13 05:33:29;;;;;;;2.22;0.55;;;;;;;17.92;51.12;99157.88;4974276;28;20489;-72
2023/04/13 05:35:56;;;;;;;1.42;0.45;;;;;;;17.93;50.95;99156.94;4974307;28;20035;-73
2023/04/13 05:38:21;;;;;;;1.17;0.43;;;;;;;17.90;50.85;99154.50;4974605;28;20030;-72
2023/04/13 05:40:47;;;;;;;1.15;0.57;;;;;;;17.90;51.26;99162.41;4973913;28;20057;-73
2023/04/13 05:43:13;;;;;;;1.55;0.60;;;;;;;17.89;50.92;99163.34;4974161;28;20065;-72
2023/04/13 05:45:39;;;;;;;0.70;0.30;;;;;;;17.89;50.81;99173.03;4958886;28;20031;-72
2023/04/13 05:48:05;;;;;;;1.83;0.50;;;;;;;17.87;50.92;99165.19;4973829;28;20031;-72
2023/04/13 05:50:30;;;;;;;0.57;0.30;;;;;;;17.88;50.95;99169.56;4971122;28;20106;-73
2023/04/13 05:52:56;;;;;;;1.35;0.32;;;;;;;17.88;50.98;99171.34;4968136;28;20066;-72
2023/04/13 05:55:22;;;;;;;1.73;0.40;;;;;;;17.88;50.93;99172.19;4965913;28;20033;-73
2023/04/13 05:57:48;;;;;;;1.08;0.30;;;;;;;17.86;50.74;99181.97;4962475;28;20027;-72
2023/04/13 06:00:17;;;;;;;1.80;0.50;;;;;;;17.84;51.03;99186.47;4953229;28;20544;-72
2023/04/13 06:02:42;;;;;;;1.25;0.47;;;;;;;17.85;50.68;99188.19;4971360;28;20038;-72
2023/04/13 06:05:08;;;;;;;2.17;0.70;;;;;;;17.84;51.00;99189.97;4949649;28;20038;-73
2023/04/13 06:07:34;;;;;;;0.30;0.30;;;;;;;17.84;50.67;99186.47;4954583;29;20108;-72
2023/04/13 06:10:00;;;;;;;1.15;0.40;;;;;;;17.84;50.73;99191.75;4955006;29;20059;-73
2023/04/13 06:12:26;;;;;;;0.60;0.30;;;;;;;17.83;50.73;99190.06;4955139;29;20038;-73
2023/04/13 06:14:51;;;;;;;1.02;0.35;;;;;;;17.81;50.84;99191.91;4954146;29;20031;-73
2023/04/13 06:17:17;;;;;;;0.75;0.50;;;;;;;17.82;51.02;99191.00;4954378;29;20110;-73
2023/04/13 06:19:42;;;;;;;1.35;0.28;;;;;;;17.83;50.60;99193.53;4954201;29;20023;-72
2023/04/13 06:22:08;;;;;;;1.67;0.43;;;;;;;17.81;51.04;99181.34;4954244;29;20147;-72
2023/04/13 06:24:33;;;;;;;1.27;0.50;;;;;;;17.81;50.68;99187.50;4955929;28;20027;-73
2023/04/13 06:26:59;;;;;;;1.45;0.40;;;;;;;17.82;50.70;99193.63;4973585;28;20023;-73
2023/04/13 06:29:24;;;;;;;0.32;0.22;;;;;;;17.79;50.52;99183.22;4973194;28;20543;-73
2023/04/13 06:31:50;;;;;;;1.75;0.40;;;;;;;17.81;50.45;99186.63;4973363;28;20034;-71
2023/04/13 06:34:16;;;;;;;0.95;0.38;;;;;;;17.81;50.88;99192.78;4973462;28;20037;-73
2023/04/13 06:36:42;;;;;;;1.35;0.40;;;;;;;17.81;50.51;99186.63;4973332;28;20034;-72
2023/04/13 06:39:08;;;;;;;2.03;0.60;;;;;;;17.81;50.71;99186.63;4973237;28;20050;-72
2023/04/13 06:41:33;;;;;;;1.42;0.32;;;;;;;17.83;50.54;99182.16;4973254;28;20038;-72
2023/04/13 06:43:59;;;;;;;1.35;0.60;;;;;;;17.81;50.54;99189.28;4972951;28;20030;-73
2023/04/13 06:46:24;;;;;;;2.03;0.40;;;;;;;17.80;50.66;99188.44;4973272;28;20031;-72
2023/04/13 06:48:50;;;;;;;1.48;0.38;;;;;;;17.80;50.56;99187.56;4973285;28;20034;-72
2023/04/13 06:51:15;;;;;;;0.60;0.40;;;;;;;17.81;50.55;99189.28;4973283;28;20030;-73
2023/04/13 06:53:41;;;;;;;0.93;0.40;;;;;;;17.80;50.77;99190.22;4973133;28;20282;-72
2023/04/13 06:56:07;;;;;;;0.73;0.32;;;;;;;17.84;50.45;99186.47;4973114;28;20026;-72
2023/04/13 06:58:32;;;;;;;1.55;0.43;;;;;;;17.82;50.53;99196.28;4971937;28;20042;-73
2023/04/13 07:00:57;;;;;;;1.55;0.45;;;;;;;17.83;50.39;99179.50;4955594;28;20118;-73
2023/04/13 07:03:23;;;;;;;1.38;0.40;;;;;;;17.84;50.52;99191.75;4972552;28;20401;-72
2023/04/13 07:05:48;;;;;;;1.15;0.40;;;;;;;17.83;50.28;99190.06;4971396;28;20051;-72
2023/04/13 07:08:14;;;;;;;1.13;0.32;;;;;;;17.84;50.57;99191.75;4972976;28;20030;-72
2023/04/13 07:10:40;;;;;;;1.20;0.20;;;;;;;17.84;50.41;99195.25;4972510;28;20031;-71
2023/04/13 07:13:06;;;;;;;1.98;0.57;;;;;;;17.85;50.51;99190.81;4971733;28;20039;-73
2023/04/13 07:15:31;;;;;;;1.60;0.30;;;;;;;17.88;50.53;99193.31;4972946;28;20138;-72
2023/04/13 07:17:57;;;;;;;2.22;0.57;;;;;;;17.88;50.43;99193.31;4972903;28;20489;-72
2023/04/13 07:20:22;;;;;;;1.40;0.40;;;;;;;17.88;50.43;99203.88;4972610;28;20034;-73
2023/04/13 07:22:48;;;;;;;1.92;0.60;;;;;;;17.90;50.42;99207.28;4972688;28;20031;-72
2023/04/13 07:25:13;;;;;;;1.00;0.30;;;;;;;17.90;50.28;99196.72;4972847;28;20035;-72
2023/04/13 07:27:39;;;;;;;0.93;0.30;;;;;;;17.90;50.42;99201.13;4972428;28;20041;-73
2023/04/13 07:30:07;;;;;;;1.27;0.40;;;;;;;17.91;50.30;99205.50;4972510;28;20038;-72
2023/04/13 07:32:32;;;;;;;0.80;0.40;;;;;;;17.90;50.02;99209.06;4972629;28;20042;-72
2023/04/13 07:35:00;;;;;;;1.67;0.38;;;;;;;17.87;50.09;99220.63;4972654;28;20026;-72
2023/04/13 07:37:25;;;;;;;1.75;0.40;;;;;;;17.91;50.24;99224.81;4973064;28;20486;-72
2023/04/13 07:39:51;;;;;;;1.02;0.35;;;;;;;17.90;50.13;99219.63;4972438;28;20054;-72
2023/04/13 07:42:17;;;;;;;1.05;0.47;;;;;;;17.88;50.04;99221.50;4972146;28;20030;-73
2023/04/13 07:44:42;;;;;;;1.08;0.40;;;;;;;17.88;50.02;99219.72;4972178;28;20489;-73
2023/04/13 07:47:07;;;;;;;0.60;0.20;;;;;;;17.88;50.05;99209.16;4972604;28;20106;-73
2023/04/13 07:49:36;;;;;;;1.27;0.30;;;;;;;17.87;50.27;99199.50;4972443;28;20023;-72
2023/04/13 07:52:02;;;;;;;0.93;0.50;;;;;;;17.87;50.05;99202.16;4972278;28;20035;-73
2023/04/13 07:54:28;;;;;;;0.80;0.30;;;;;;;17.85;50.16;99196.09;4972644;28;20436;-72
2023/04/13 07:56:55;;;;;;;1.63;0.30;;;;;;;17.87;50.38;99186.31;4970834;28;20027;-72
2023/04/13 07:59:20;;;;;;;1.42;0.50;;;;;;;17.86;50.31;99184.59;4972724;28;20030;-72
2023/04/13 08:01:46;;;;;;;1.40;0.35;;;;;;;17.88;50.06;99192.44;4972407;28;20030;-72
2023/04/13 08:04:11;;;;;;;0.65;0.30;;;;;;;17.88;50.33;99198.59;4972396;28;20390;-73
2023/04/13 08:06:37;;;;;;;2.03;0.50;;;;;;;17.90;50.18;99196.72;4972363;28;20059;-73
2023/04/13 08:09:02;;;;;;;1.42;0.40;;;;;;;17.89;49.97;99197.66;4972273;28;20401;-72
2023/04/13 08:11:28;;;;;;;1.40;0.55;;;;;;;17.89;50.07;99200.31;4975458;28;20018;-73
2023/04/13 08:13:53;;;;;;;1.85;0.70;;;;;;;17.90;49.99;99196.72;4976520;28;20495;-73
2023/04/13 08:16:19;;;;;;;2.65;0.45;;;;;;;17.91;49.99;99206.34;4976717;28;20026;-73
2023/04/13 08:18:44;;;;;;;2.38;0.52;;;;;;;17.92;50.21;99208.03;4975784;28;20034;-72
2023/04/13 08:21:11;;;;;;;1.88;0.40;;;;;;;17.93;50.06;99204.47;4975526;28;20089;-72
2023/04/13 08:23:40;;;;;;;0.57;0.22;;;;;;;17.93;50.29;99201.81;4975687;28;20026;-73
2023/04/13 08:26:05;;;;;;;1.02;0.50;;;;;;;17.93;50.22;99201.81;4975347;28;20031;-73
2023/04/13 08:28:31;;;;;;;1.13;0.43;;;;;;;17.95;50.26;99209.66;4975428;28;20113;-72
2023/04/13 08:30:57;;;;;;;1.40;0.45;;;;;;;17.95;49.93;99194.69;4975752;28;20027;-72
2023/04/13 08:33:22;;;;;;;2.25;0.70;;;;;;;17.95;49.89;99205.25;4969971;28;20029;-72
2023/04/13 08:35:47;;;;;;;1.75;0.65;;;;;;;17.94;50.29;99198.28;4989416;28;20029;-72
2023/04/13 08:38:13;;;;;;;1.38;0.47;;;;;;;17.96;49.91;99211.38;4984313;28;20058;-73
2023/04/13 08:40:39;;;;;;;1.55;0.70;;;;;;;17.96;50.13;99208.72;4991584;28;20050;-73
2023/04/13 08:43:06;;;;;;;2.40;0.60;;;;;;;17.96;50.24;99217.50;4988443;28;20531;-72
2023/04/13 08:45:32;;;;;;;1.17;0.57;;;;;;;17.95;50.19;99202.63;4975274;28;20057;-72
2023/04/13 08:48:00;;;;;;;2.17;0.68;;;;;;;17.95;50.07;99215.81;4983294;28;20029;-73
2023/04/13 08:50:27;;;;;;;1.73;0.57;;;;;;;17.97;49.96;99219.22;4994488;28;20389;-72
2023/04/13 08:52:53;;;;;;;2.50;0.68;;;;;;;17.97;50.12;99216.56;4984098;28;20042;-73
2023/04/13 08:55:19;;;;;;;1.63;0.60;;;;;;;17.96;49.88;99220.16;4952871;28;20041;-72
2023/04/13 08:57:48;;;;;;;2.35;0.70;;;;;;;17.96;49.81;99220.16;4976229;28;20035;-72
2023/04/13 09:00:16;;;;;;;2.92;0.98;;;;;;;17.95;49.99;99223.75;4973502;28;20474;-73
2023/04/13 09:02:57;;;;;;;2.90;0.88;;;;;;;17.98;50.09;99231.47;4974141;28;20101;-73
2023/04/13 09:05:25;;;;;;;1.95;0.80;;;;;;;17.99;50.18;99234.97;4973833;28;20086;-72
2023/04/13 09:07:55;;;;;;;2.05;0.80;;;;;;;18.00;50.14;99241.97;4981184;28;20113;-73
2023/04/13 09:10:22;;;;;;;2.38;1.00;;;;;;;17.98;50.33;99242.03;4992201;28;20030;-72
2023/04/13 09:12:49;;;;;;;1.90;0.63;;;;;;;18.02;50.26;99241.91;4982446;28;20081;-73
2023/04/13 09:15:15;;;;;;;4.25;0.85;;;;;;;18.01;50.28;99245.47;4974335;28;20397;-73
2023/04/13 09:17:40;;;;;;;1.05;0.60;;;;;;;18.01;50.34;99245.47;4979929;28;20029;-72
2023/04/13 09:20:16;;;;;;;2.47;0.90;;;;;;;17.98;50.49;99255.25;4991996;28;20041;-72
2023/04/13 09:22:42;;;;;;;2.35;0.80;;;;;;;18.01;50.32;99256.03;4973371;28;20049;-72
2023/04/13 09:25:19;;;;;;;1.38;0.60;;;;;;;18.02;50.29;99255.09;4974429;28;20031;-73
2023/04/13 09:27:45;;;;;;;3.50;1.00;;;;;;;18.02;50.19;99252.47;4980379;28;20033;-73
2023/04/13 09:30:11;;;;;;;1.88;0.70;;;;;;;18.04;50.21;99250.56;4993077;28;20105;-73
2023/04/13 09:32:36;;;;;;;3.00;0.80;;;;;;;18.04;50.43;99242.66;4993668;28;20085;-72
2023/04/13 09:35:04;;;;;;;1.58;0.68;;;;;;;18.04;50.25;99250.56;4993904;28;20019;-71
2023/04/13 09:37:31;;;;;;;2.05;0.80;;;;;;;18.03;50.16;99249.75;4993553;28;20465;-72
2023/04/13 09:40:26;;;;;;;2.00;0.65;;;;;;;18.06;50.19;99254.03;4983497;28;20126;-73
2023/04/13 09:43:01;;;;;;;2.55;0.65;;;;;;;18.09;50.45;99253.88;4938614;28;20046;-73
2023/04/13 09:45:37;;;;;;;1.88;1.00;;;;;;;18.08;50.16;99247.75;4974100;28;20062;-72
2023/04/13 09:48:05;;;;;;;2.58;1.00;;;;;;;18.10;50.28;99250.28;4974079;28;20031;-72
2023/04/13 09:50:35;;;;;;;4.03;1.00;;;;;;;18.07;50.11;99251.31;4984688;28;20057;-75
2023/04/13 09:53:05;;;;;;;2.28;0.65;;;;;;;18.11;50.29;99246.72;4992829;28;20030;-72
2023/04/13 09:55:36;;;;;;;3.92;1.15;;;;;;;18.17;50.07;99250.84;4993590;28;20030;-72
2023/04/13 09:58:12;;;;;;;2.83;0.70;;;;;;;18.15;50.04;99244.78;4993179;28;20409;-72
2023/04/13 10:00:40;;;;;;;2.50;0.77;;;;;;;18.16;50.31;99244.69;4981893;28;20026;-73
2023/04/13 10:03:11;;;;;;;1.55;0.70;;;;;;;18.17;50.17;99256.97;4973838;28;20037;-73
2023/04/13 10:05:37;;;;;;;2.70;1.00;;;;;;;18.20;50.31;99243.59;4973417;28;20397;-72
2023/04/13 10:08:03;;;;;;;5.40;0.80;;;;;;;18.17;50.12;99253.47;4973812;28;20034;-72
2023/04/13 10:10:28;;;;;;;2.08;0.88;;;;;;;18.22;49.90;99243.53;4983481;28;20103;-72
2023/04/13 10:12:57;;;;;;;1.42;0.80;;;;;;;18.23;50.20;99240.81;4989761;28;20073;-73
2023/04/13 10:15:41;;;;;;;3.17;1.13;;;;;;;18.21;49.87;99240.00;4973656;28;20038;-73
2023/04/13 10:18:35;;;;;;;2.25;0.80;;;;;;;18.21;50.22;99232.09;4974551;28;20046;-73
2023/04/13 10:21:03;;;;;;;1.33;0.70;;;;;;;18.23;50.12;99230.25;4978489;28;20023;-72
2023/04/13 10:23:31;;;;;;;2.65;0.88;;;;;;;18.22;49.89;99222.41;4973371;28;20551;-73
2023/04/13 10:25:58;;;;;;;2.47;1.00;;;;;;;18.22;50.06;99223.22;4973467;28;20401;-72
2023/04/13 10:28:23;;;;;;;2.05;0.55;;;;;;;18.23;50.04;99227.59;4973587;28;20027;-72
2023/04/13 10:30:55;;;;;;;3.33;1.02;;;;;;;18.23;49.88;99230.25;4968198;28;20030;-73
2023/04/13 10:33:20;;;;;;;2.95;0.75;;;;;;;18.22;50.14;99223.22;4990670;28;20037;-72
2023/04/13 10:35:57;;;;;;;1.90;0.57;;;;;;;18.22;50.17;99227.69;4992101;28;20034;-72
2023/04/13 10:38:23;;;;;;;3.45;0.98;;;;;;;18.24;50.08;99224.03;4992388;28;20389;-72
2023/04/13 10:40:49;;;;;;;4.45;0.77;;;;;;;18.23;50.12;99216.19;4980029;28;20510;-72
2023/04/13 10:43:28;;;;;;;1.70;0.60;;;;;;;18.24;50.20;99218.75;4972748;28;20485;-71
2023/04/13 10:46:12;;;;;;;2.53;0.60;;;;;;;18.22;49.87;99215.31;4973184;28;20034;-71
2023/04/13 10:48:40;;;;;;;2.28;0.63;;;;;;;18.26;50.04;99213.38;4972806;28;20026;-71
2023/04/13 10:51:06;;;;;;;2.58;0.70;;;;;;;18.23;49.94;99209.13;4968286;28;20504;-72
2023/04/13 10:53:33;;;;;;;1.38;0.60;;;;;;;18.24;50.13;99208.19;4951610;28;20022;-73
2023/04/13 10:56:00;;;;;;;2.45;0.70;;;;;;;18.23;50.00;99206.47;4991774;28;20498;-73
2023/04/13 10:58:27;;;;;;;1.73;0.70;;;;;;;18.25;49.98;99195.81;4970993;28;20376;-72
2023/04/13 11:00:53;;;;;;;1.65;0.73;;;;;;;18.25;50.06;99201.09;4962072;28;20047;-72
2023/04/13 11:03:19;;;;;;;1.20;0.60;;;;;;;18.27;49.80;99201.00;4990135;28;20033;-72
2023/04/13 11:05:47;;;;;;;3.72;0.73;;;;;;;18.25;49.99;99201.94;4987737;28;20030;-72
2023/04/13 11:08:20;;;;;;;3.05;0.75;;;;;;;18.28;49.96;99210.63;4970684;28;20030;-72
2023/04/13 11:10:55;;;;;;;1.65;0.70;;;;;;;18.28;50.20;99205.34;4980028;28;20035;-73
2023/04/13 11:13:25;;;;;;;2.20;0.80;;;;;;;18.29;50.05;99196.50;4964629;28;20107;-72
2023/04/13 11:15:59;;;;;;;2.08;0.60;;;;;;;18.30;50.02;99214.06;4953531;29;20401;-73
2023/04/13 11:18:25;;;;;;;2.15;1.00;;;;;;;18.31;50.01;99203.41;4959816;28;20122;-72
2023/04/13 11:20:51;;;;;;;1.70;0.60;;;;;;;18.31;50.07;99199.91;4982319;28;20105;-73
2023/04/13 11:23:17;;;;;;;1.58;0.70;;;;;;;18.33;50.01;99193.63;4980135;28;20065;-72
2023/04/13 11:25:53;;;;;;;3.22;0.73;;;;;;;18.32;49.76;99188.41;4978791;28;20077;-73
2023/04/13 11:28:20;;;;;;;;;;;;;;;18.35;49.70;99181.19;4967636;28;20528;-73
2023/04/13 11:30:55;;;;;;;1.52;0.57;;;;;;;18.35;49.87;99181.19;4977125;28;20340;-74
2023/04/13 11:33:29;;;;;;;1.13;0.52;;;;;;;18.38;49.82;99169.59;4970899;28;20122;-73
2023/04/13 11:35:56;;;;;;;2.00;0.60;;;;;;;18.40;49.76;99166.88;4971503;28;20054;-72